Time;durP1;ratioP1;P1;durP2;ratioP2;P2;SDS_P1;SDS_P2;PMS_P1;PMS_P2;Temp;Humidity;BMP_temperature;BMP_pressure;BME280_temperature;BME280_humidity;BME280_pressure;Samples;Min_cycle;Max_cycle;Signal;HPM_P1;HPM_P2
2021/03/04 00:00:46;;;;;;;6.62;5.90;;;;;;;12.90;50.37;100093.28;1758898;81;21263;-69
2021/03/04 00:03:14;;;;;;;8.60;5.95;;;;;;;12.89;50.41;100108.45;1753023;81;21174;-71
2021/03/04 00:05:42;;;;;;;6.67;5.58;;;;;;;12.88;50.39;100084.11;1758678;81;21162;-71
2021/03/04 00:08:10;;;;;;;6.55;5.83;;;;;;;12.86;50.40;100088.79;1756355;81;21224;-70
2021/03/04 00:10:37;;;;;;;7.47;5.92;;;;;;;12.85;50.40;100084.99;1750727;81;21389;-70
2021/03/04 00:13:05;;;;;;;6.90;5.33;;;;;;;12.84;50.40;100072.14;1747319;81;21198;-70
2021/03/04 00:15:33;;;;;;;6.83;5.58;;;;;;;12.82;50.41;100072.00;1810795;79;21600;-69
2021/03/04 00:18:00;;;;;;;6.85;5.72;;;;;;;12.81;50.46;100071.17;1742415;81;21124;-70
2021/03/04 00:20:31;;;;;;;6.30;5.58;;;;;;;12.81;50.47;100061.02;1741715;82;21590;-71
2021/03/04 00:22:59;;;;;;;7.37;6.17;;;;;;;12.79;50.49;100054.02;1758039;81;21206;-72
2021/03/04 00:25:29;;;;;;;7.40;6.00;;;;;;;12.78;50.52;100056.34;1799245;79;21205;-71
2021/03/04 00:27:57;;;;;;;6.75;6.10;;;;;;;12.77;50.52;100057.87;1797033;79;21132;-71
2021/03/04 00:30:25;;;;;;;7.22;6.08;;;;;;;12.75;50.54;100054.55;1806227;79;21152;-71
2021/03/04 00:32:53;;;;;;;8.40;6.90;;;;;;;12.74;50.58;100053.70;1795896;79;21132;-71
2021/03/04 00:35:20;;;;;;;7.25;6.53;;;;;;;12.67;50.60;100035.91;1781523;79;21222;-70
2021/03/04 00:37:48;;;;;;;6.22;5.62;;;;;;;12.73;50.60;100044.56;1795163;79;21632;-71
2021/03/04 00:40:19;;;;;;;8.05;6.30;;;;;;;12.71;50.61;100040.73;1788803;79;21205;-71
2021/03/04 00:42:46;;;;;;;7.03;6.05;;;;;;;12.70;50.63;100031.06;1807387;79;21138;-71
2021/03/04 00:45:19;;;;;;;7.62;6.33;;;;;;;12.70;50.62;100021.73;1806251;79;21147;-71
2021/03/04 00:47:49;;;;;;;8.35;6.25;;;;;;;12.69;50.65;100028.56;1785911;79;21366;-71
2021/03/04 00:50:18;;;;;;;7.35;5.67;;;;;;;12.67;50.66;100018.59;1799744;78;21202;-71
2021/03/04 00:52:45;;;;;;;7.72;6.50;;;;;;;12.66;50.68;100022.27;1749902;80;21175;-71
2021/03/04 00:55:14;;;;;;;7.28;6.33;;;;;;;12.66;50.69;100022.27;1735817;82;21156;-71
2021/03/04 00:57:41;;;;;;;7.33;6.40;;;;;;;12.65;50.70;100009.94;1760072;80;21135;-71
2021/03/04 01:00:10;;;;;;;8.05;6.12;;;;;;;12.64;50.70;99998.97;1784614;79;21367;-70
2021/03/04 01:02:38;;;;;;;8.60;6.67;;;;;;;12.63;50.73;100000.77;1759544;80;21235;-71
2021/03/04 01:05:06;;;;;;;7.03;6.33;;;;;;;12.62;50.74;99991.13;1764318;80;21218;-71
2021/03/04 01:07:36;;;;;;;7.22;6.45;;;;;;;12.61;50.76;99990.80;1776375;80;21207;-70
2021/03/04 01:10:07;;;;;;;7.95;7.15;;;;;;;12.60;50.77;99978.48;1747503;82;21163;-70
2021/03/04 01:12:34;;;;;;;8.25;6.80;;;;;;;12.58;50.77;99979.99;1764547;80;22359;-69
2021/03/04 01:15:13;;;;;;;7.62;6.60;;;;;;;12.58;50.77;99972.00;1756788;80;21175;-70
2021/03/04 01:17:41;;;;;;;7.42;6.33;;;;;;;12.57;50.80;99968.16;1774329;80;21244;-70
2021/03/04 01:20:15;;;;;;;7.67;6.28;;;;;;;12.55;50.81;99964.34;1773503;80;21151;-70
2021/03/04 01:22:43;;;;;;;8.80;7.12;;;;;;;12.54;50.84;99949.88;1743214;82;21151;-70
2021/03/04 01:25:12;;;;;;;8.55;7.25;;;;;;;12.53;50.83;99949.54;1765705;80;21163;-70
2021/03/04 01:27:39;;;;;;;9.40;7.47;;;;;;;12.51;50.86;99943.05;1755957;80;21616;-69
2021/03/04 01:30:10;;;;;;;9.05;7.37;;;;;;;12.51;50.85;99944.38;1767157;80;21219;-70
2021/03/04 01:32:37;;;;;;;8.53;6.67;;;;;;;12.50;50.88;99937.92;1766137;80;21119;-70
2021/03/04 01:35:07;;;;;;;9.00;7.37;;;;;;;12.50;50.88;99943.25;1739359;81;21181;-70
2021/03/04 01:37:36;;;;;;;7.47;6.65;;;;;;;12.49;50.90;99940.24;1765405;80;21202;-69
2021/03/04 01:40:10;;;;;;;8.83;7.58;;;;;;;12.49;50.91;99931.73;1750658;80;21175;-70
2021/03/04 01:42:37;;;;;;;9.35;7.28;;;;;;;12.46;50.93;99924.11;1750310;82;21151;-70
2021/03/04 01:45:07;;;;;;;7.83;6.78;;;;;;;12.47;50.94;99927.59;1781558;80;21727;-72
2021/03/04 01:47:35;;;;;;;8.70;7.45;;;;;;;12.46;50.93;99935.25;1750455;81;21185;-71
2021/03/04 01:50:06;;;;;;;8.30;7.33;;;;;;;12.46;50.95;99924.59;1755906;81;22268;-71
2021/03/04 01:52:34;;;;;;;10.75;8.13;;;;;;;12.45;50.95;99926.44;1767388;80;21623;-71
2021/03/04 01:55:02;;;;;;;8.83;7.25;;;;;;;12.42;50.95;99916.15;1742280;81;21172;-71
2021/03/04 01:57:30;;;;;;;9.08;7.15;;;;;;;12.43;50.93;99919.63;1769089;81;21580;-70
2021/03/04 01:59:58;;;;;;;9.60;7.50;;;;;;;12.42;50.95;99917.96;1803166;79;21147;-70
2021/03/04 02:02:25;;;;;;;10.70;8.40;;;;;;;12.41;50.93;99906.99;1799538;79;21378;-70
2021/03/04 02:04:55;;;;;;;10.65;8.13;;;;;;;12.41;50.96;99906.99;1790565;79;21199;-70
2021/03/04 02:07:55;;;;;;;10.50;8.28;;;;;;;12.39;50.96;99890.67;1802430;79;21163;-71
2021/03/04 02:10:48;;;;;;;9.23;7.85;;;;;;;12.38;50.94;99884.17;1774724;79;21199;-72
2021/03/04 02:13:51;;;;;;;9.45;7.60;;;;;;;12.36;50.97;99883.05;1766846;80;21551;-71
2021/03/04 02:16:33;;;;;;;9.70;8.63;;;;;;;12.33;51.03;99880.72;1791969;79;21365;-71
2021/03/04 02:19:05;;;;;;;10.75;8.23;;;;;;;12.30;51.07;99879.73;1780753;78;21157;-71
2021/03/04 02:21:53;;;;;;;11.20;8.30;;;;;;;12.27;51.09;99867.29;1789557;79;21134;-69
2021/03/04 02:24:29;;;;;;;11.38;8.28;;;;;;;12.26;51.11;99870.44;1788238;79;21115;-70
2021/03/04 02:27:16;;;;;;;9.13;7.42;;;;;;;12.24;51.17;99867.62;1799874;79;21096;-71
2021/03/04 02:29:50;;;;;;;10.30;8.30;;;;;;;12.23;51.18;99861.48;1793844;79;21332;-70
2021/03/04 02:32:22;;;;;;;9.53;8.33;;;;;;;12.22;51.24;99854.48;1800155;79;21573;-70
2021/03/04 02:34:54;;;;;;;11.20;8.90;;;;;;;12.20;51.20;99850.66;1796876;79;21611;-70
2021/03/04 02:37:22;;;;;;;10.75;8.28;;;;;;;12.22;51.22;99852.33;1800847;79;21482;-70
2021/03/04 02:39:52;;;;;;;10.95;8.85;;;;;;;12.20;51.21;99836.52;1797370;78;21171;-70
2021/03/04 02:42:22;;;;;;;10.55;8.88;;;;;;;12.18;51.23;99834.02;1727845;81;21554;-71
2021/03/04 02:44:53;;;;;;;13.58;9.43;;;;;;;12.18;51.24;99830.03;1713635;82;21224;-70
2021/03/04 02:47:21;;;;;;;10.55;9.05;;;;;;;12.18;51.24;99824.70;1748856;81;21171;-71
2021/03/04 02:49:48;;;;;;;13.15;9.53;;;;;;;12.18;51.22;99824.70;1753940;81;21227;-70
2021/03/04 02:52:17;;;;;;;11.55;9.63;;;;;;;12.18;51.23;99824.70;1755970;81;21202;-71
2021/03/04 02:54:45;;;;;;;12.20;9.73;;;;;;;12.18;51.23;99822.55;1735809;81;21193;-71
2021/03/04 02:57:13;;;;;;;12.73;9.93;;;;;;;12.19;51.21;99814.91;1787098;80;21349;-71
2021/03/04 02:59:42;;;;;;;13.08;9.95;;;;;;;12.18;51.23;99805.23;1775571;78;21124;-69
2021/03/04 03:02:09;;;;;;;10.53;8.98;;;;;;;12.17;51.20;99795.61;1769086;79;21161;-70
2021/03/04 03:07:03;;;;;;;12.23;9.45;;;;;;;12.20;51.22;99778.74;1802802;79;28241;-71
2021/03/04 03:09:31;;;;;;;12.98;10.05;;;;;;;12.13;51.27;99779.63;1773675;79;21605;-71
2021/03/04 03:11:59;;;;;;;11.73;9.70;;;;;;;12.14;51.27;99774.64;1772475;80;21445;-72
2021/03/04 03:14:29;;;;;;;13.48;11.03;;;;;;;12.14;51.27;99772.80;1767574;80;21162;-72
2021/03/04 03:16:58;;;;;;;12.78;10.63;;;;;;;12.15;51.25;99770.48;1776214;79;21563;-73
2021/03/04 03:19:26;;;;;;;13.98;10.72;;;;;;;12.14;51.25;99755.49;1768355;80;21182;-72
2021/03/04 03:21:54;;;;;;;13.20;10.43;;;;;;;12.15;51.25;99759.01;1759070;80;21154;-73
2021/03/04 03:24:21;;;;;;;13.68;10.40;;;;;;;12.14;51.27;99769.31;1764200;80;21194;-69
2021/03/04 03:26:49;;;;;;;14.85;11.33;;;;;;;12.13;51.26;99755.19;1773904;79;21304;-70
2021/03/04 03:29:17;;;;;;;12.95;10.75;;;;;;;12.14;51.26;99761.33;1765631;80;21167;-70
2021/03/04 03:31:44;;;;;;;14.68;10.98;;;;;;;12.14;51.24;99749.34;1764375;79;21151;-69
2021/03/04 03:34:12;;;;;;;14.07;11.05;;;;;;;12.14;51.26;99740.02;1757685;80;21182;-70
2021/03/04 03:36:41;;;;;;;14.43;11.80;;;;;;;12.13;51.24;99738.36;1756188;79;22072;-69
2021/03/04 03:39:09;;;;;;;15.28;10.90;;;;;;;12.12;51.25;99732.72;1775230;79;21639;-72
2021/03/04 03:41:39;;;;;;;14.20;10.90;;;;;;;12.13;51.26;99734.36;1762960;80;21119;-71
2021/03/04 03:44:08;;;;;;;14.90;11.70;;;;;;;12.12;51.25;99722.89;1760656;80;21134;-71
2021/03/04 03:46:36;;;;;;;15.70;11.88;;;;;;;12.11;51.27;99722.58;1756046;80;21167;-72
2021/03/04 03:49:05;;;;;;;14.55;11.45;;;;;;;12.12;51.28;99714.08;1771366;80;21377;-71
2021/03/04 03:51:34;;;;;;;13.93;11.20;;;;;;;12.10;51.27;99714.77;1764514;79;21154;-70
2021/03/04 03:54:04;;;;;;;13.75;10.48;;;;;;;12.11;51.29;99710.59;1774879;80;21147;-71
2021/03/04 03:56:32;;;;;;;15.72;12.28;;;;;;;12.11;51.29;99709.75;1754227;80;21194;-72
2021/03/04 03:59:00;;;;;;;13.95;11.20;;;;;;;12.09;51.29;99702.44;1768290;79;21155;-72
2021/03/04 04:01:28;;;;;;;16.02;11.88;;;;;;;12.09;51.29;99704.63;1758323;80;21196;-71
2021/03/04 04:03:58;;;;;;;14.18;11.35;;;;;;;12.09;51.30;99695.78;1756250;80;21174;-72
2021/03/04 04:06:27;;;;;;;15.20;11.78;;;;;;;12.08;51.30;99684.31;1761113;80;21151;-72
2021/03/04 04:08:55;;;;;;;15.28;12.33;;;;;;;12.07;51.30;99682.67;1747042;81;21517;-71
2021/03/04 04:11:24;;;;;;;14.30;11.65;;;;;;;12.07;51.31;99670.69;1744195;81;21111;-71
2021/03/04 04:13:53;;;;;;;14.50;11.75;;;;;;;12.07;51.30;99672.02;1744039;81;22279;-71
2021/03/04 04:16:20;;;;;;;16.02;12.05;;;;;;;12.06;51.31;99657.55;1750394;81;21119;-71
2021/03/04 04:18:48;;;;;;;16.05;12.25;;;;;;;12.06;51.31;99653.56;1747093;81;21597;-71
2021/03/04 04:21:16;;;;;;;15.65;12.37;;;;;;;12.05;51.32;99643.39;1742343;81;21758;-72
2021/03/04 04:23:45;;;;;;;16.50;12.68;;;;;;;12.06;51.33;99637.58;1755135;81;21652;-72
2021/03/04 04:26:12;;;;;;;17.95;13.38;;;;;;;12.04;51.31;99632.43;1762723;81;21319;-72
2021/03/04 04:28:40;;;;;;;15.65;12.35;;;;;;;12.04;51.34;99633.77;1746272;79;21164;-72
2021/03/04 04:31:07;;;;;;;14.53;11.50;;;;;;;12.03;51.33;99626.77;1758713;81;21156;-71
2021/03/04 04:33:35;;;;;;;17.73;13.38;;;;;;;12.04;51.36;99631.09;1748764;79;21159;-71
2021/03/04 04:36:05;;;;;;;14.60;11.80;;;;;;;12.03;51.35;99613.97;1737011;81;21064;-71
2021/03/04 04:38:33;;;;;;;15.90;12.43;;;;;;;12.03;51.35;99617.45;1744118;79;21320;-72
2021/03/04 04:41:01;;;;;;;16.30;12.43;;;;;;;12.03;51.36;99621.95;1754030;81;21750;-74
2021/03/04 04:43:30;;;;;;;15.72;12.33;;;;;;;12.02;51.38;99609.67;1754787;81;21147;-73
2021/03/04 04:45:58;;;;;;;14.68;11.70;;;;;;;12.00;51.36;99609.33;1748675;81;21191;-71
2021/03/04 04:48:26;;;;;;;17.45;13.62;;;;;;;12.00;51.36;99608.00;1759039;81;21158;-71
2021/03/04 04:50:55;;;;;;;15.45;12.05;;;;;;;12.00;51.36;99601.34;1744899;80;21650;-71
2021/03/04 04:53:22;;;;;;;16.42;12.37;;;;;;;12.01;51.35;99608.81;1741707;81;21568;-73
2021/03/04 04:55:50;;;;;;;16.35;12.90;;;;;;;11.99;51.38;99601.03;1740334;81;21179;-72
2021/03/04 04:58:18;;;;;;;16.50;12.98;;;;;;;12.00;51.36;99611.17;1747720;79;21167;-74
2021/03/04 05:00:45;;;;;;;18.15;13.38;;;;;;;11.99;51.36;99593.05;1755331;81;21536;-73
2021/03/04 05:03:13;;;;;;;16.15;13.05;;;;;;;11.98;51.37;99588.72;1742688;81;21369;-71
2021/03/04 05:05:40;;;;;;;18.52;13.80;;;;;;;11.98;51.36;99579.40;1758040;80;21206;-70
2021/03/04 05:08:08;;;;;;;17.42;12.82;;;;;;;11.98;51.35;99580.73;1753960;80;21570;-72
2021/03/04 05:10:35;;;;;;;17.40;13.53;;;;;;;11.98;51.35;99580.73;1753627;80;21190;-72
2021/03/04 05:13:03;;;;;;;16.45;12.43;;;;;;;11.99;51.34;99570.42;1760316;80;22064;-72
2021/03/04 05:15:31;;;;;;;17.10;13.28;;;;;;;11.99;51.31;99573.08;1707621;82;21145;-73
2021/03/04 05:17:58;;;;;;;18.23;13.55;;;;;;;11.99;51.31;99566.91;1690560;83;21151;-73
2021/03/04 05:20:26;;;;;;;16.07;12.68;;;;;;;12.00;51.30;99557.92;1690954;83;21179;-73
2021/03/04 05:22:54;;;;;;;17.90;14.00;;;;;;;11.99;51.29;99563.77;1704049;83;21182;-73
2021/03/04 05:25:22;;;;;;;17.32;13.32;;;;;;;11.99;51.28;99553.11;1694977;82;21191;-72
2021/03/04 05:27:50;;;;;;;17.82;12.78;;;;;;;12.00;51.27;99552.60;1691422;83;21222;-72
2021/03/04 05:30:19;;;;;;;16.37;12.78;;;;;;;12.00;51.27;99557.41;1695986;83;21171;-73
2021/03/04 05:32:47;;;;;;;18.40;13.65;;;;;;;12.00;51.27;99562.73;1690837;83;21128;-74
2021/03/04 05:35:15;;;;;;;15.85;13.20;;;;;;;12.00;51.26;99557.41;1690176;83;22089;-73
2021/03/04 05:37:43;;;;;;;17.23;13.15;;;;;;;12.01;51.26;99558.23;1689218;82;21127;-74
2021/03/04 05:40:13;;;;;;;16.67;12.95;;;;;;;12.01;51.22;99543.59;1690491;83;21278;-71
2021/03/04 05:42:42;;;;;;;17.32;13.25;;;;;;;12.01;51.24;99544.92;1713307;82;21147;-71
2021/03/04 05:45:17;;;;;;;16.35;13.30;;;;;;;12.03;51.22;99540.75;1696431;83;21202;-71
2021/03/04 05:47:48;;;;;;;16.82;13.30;;;;;;;12.04;51.20;99526.45;1694659;83;21579;-71
2021/03/04 05:50:17;;;;;;;16.07;12.53;;;;;;;12.04;51.19;99528.59;1690394;82;21636;-72
2021/03/04 05:52:52;;;;;;;15.70;12.65;;;;;;;12.05;51.19;99529.41;1701645;82;21458;-71
2021/03/04 05:55:19;;;;;;;18.25;12.80;;;;;;;12.06;51.17;99522.58;1702509;83;21184;-71
2021/03/04 05:57:47;;;;;;;16.10;13.05;;;;;;;12.07;51.16;99524.73;1694532;82;21164;-71
2021/03/04 06:00:16;;;;;;;17.32;13.38;;;;;;;12.08;51.14;99530.39;1692549;83;21246;-72
2021/03/04 06:02:45;;;;;;;17.82;14.03;;;;;;;12.09;51.13;99528.88;1695525;82;21559;-71
2021/03/04 06:05:14;;;;;;;17.37;13.70;;;;;;;12.11;51.11;99518.88;1706893;83;22292;-72
2021/03/04 06:07:45;;;;;;;19.23;14.83;;;;;;;12.14;51.09;99528.32;1683545;82;21188;-73
2021/03/04 06:10:14;;;;;;;17.12;13.20;;;;;;;12.15;51.05;99510.02;1657623;84;21226;-72
2021/03/04 06:12:42;;;;;;;18.05;14.78;;;;;;;12.17;51.02;99506.66;1715449;83;21179;-72
2021/03/04 06:15:11;;;;;;;18.23;14.65;;;;;;;12.20;50.99;99503.61;1698452;84;21153;-71
2021/03/04 06:17:39;;;;;;;17.65;13.83;;;;;;;12.22;50.97;99500.77;1699720;83;21219;-71
2021/03/04 06:20:09;;;;;;;16.65;13.58;;;;;;;12.23;50.96;99497.08;1705306;83;21166;-71
2021/03/04 06:22:38;;;;;;;19.48;14.40;;;;;;;12.25;50.91;99486.58;1684864;83;21654;-71
2021/03/04 06:25:10;;;;;;;18.12;13.70;;;;;;;12.27;50.87;99491.73;1706619;81;21148;-71
2021/03/04 06:27:43;;;;;;;17.40;13.85;;;;;;;12.28;50.86;99479.53;1702390;83;21584;-72
2021/03/04 06:30:12;;;;;;;;;;;;;;;12.32;50.81;99477.33;1705479;83;21210;-71
2021/03/04 06:32:43;;;;;;;17.85;13.32;;;;;;;12.32;50.80;99468.86;1688975;82;20574;-72
2021/03/04 06:35:13;;;;;;;17.73;13.78;;;;;;;12.25;50.89;99470.61;1695992;83;21126;-71
2021/03/04 06:37:43;;;;;;;20.60;16.02;;;;;;;12.29;50.87;99455.90;1703741;83;21140;-72
2021/03/04 06:40:32;;;;;;;18.25;13.62;;;;;;;12.31;50.84;99451.21;1701604;83;21175;-71
2021/03/04 06:43:01;;;;;;;18.42;14.75;;;;;;;12.34;50.80;99452.19;1707447;83;21456;-71
2021/03/04 06:45:35;;;;;;;16.32;14.15;;;;;;;12.35;50.79;99452.48;1691750;84;21136;-72
2021/03/04 06:48:09;;;;;;;18.90;15.68;;;;;;;12.37;50.75;99441.14;1704354;81;21159;-71
2021/03/04 06:50:42;;;;;;;16.30;13.70;;;;;;;12.39;50.72;99441.77;1680477;84;21192;-72
2021/03/04 06:53:21;;;;;;;18.75;14.83;;;;;;;12.42;50.71;99438.41;1697509;81;21186;-72
2021/03/04 06:56:05;;;;;;;17.65;14.33;;;;;;;12.44;50.69;99436.39;1700348;83;21239;-71
2021/03/04 06:58:39;;;;;;;17.65;14.28;;;;;;;12.46;50.68;99437.02;1697649;81;21163;-73
2021/03/04 07:01:16;;;;;;;19.17;15.03;;;;;;;12.47;50.66;99429.36;1695521;83;21178;-71
2021/03/04 07:03:51;;;;;;;19.20;14.18;;;;;;;12.49;50.64;99428.15;1703397;83;21158;-73
2021/03/04 07:06:25;;;;;;;18.42;14.53;;;;;;;12.52;50.60;99417.64;1681967;84;21244;-73
2021/03/04 07:08:54;;;;;;;17.37;14.40;;;;;;;12.55;50.58;99426.58;1702564;83;21444;-72
2021/03/04 07:11:24;;;;;;;18.23;14.60;;;;;;;12.57;50.58;99419.22;1743131;81;21187;-71
2021/03/04 07:13:52;;;;;;;16.90;13.90;;;;;;;12.59;50.56;99415.86;1749541;81;21143;-72
2021/03/04 07:16:32;;;;;;;18.87;15.03;;;;;;;12.62;50.54;99403.50;1747814;79;21163;-69
2021/03/04 07:19:01;;;;;;;18.85;14.60;;;;;;;12.64;50.51;99400.13;1744840;81;21195;-77
2021/03/04 07:21:44;;;;;;;19.52;14.73;;;;;;;12.67;50.47;99400.25;1759731;79;21163;-71
2021/03/04 07:24:11;;;;;;;19.52;15.08;;;;;;;12.69;50.45;99395.06;1750753;81;21155;-71
2021/03/04 07:26:39;;;;;;;17.52;14.63;;;;;;;12.72;50.42;99391.19;1740142;79;21198;-71
2021/03/04 07:29:09;;;;;;;19.73;15.38;;;;;;;12.74;50.41;99390.48;1747979;81;21136;-69
2021/03/04 07:31:42;;;;;;;18.87;15.72;;;;;;;12.77;50.36;99389.60;1748565;79;21151;-70
2021/03/04 07:34:15;;;;;;;19.70;14.60;;;;;;;12.79;50.33;99384.91;1746617;81;21247;-74
2021/03/04 07:36:48;;;;;;;16.77;13.85;;;;;;;12.84;50.30;99374.17;1743725;79;21556;-68
2021/03/04 07:39:16;;;;;;;19.90;14.80;;;;;;;12.88;50.27;99367.44;1744921;81;21151;-69
2021/03/04 07:41:45;;;;;;;19.30;14.65;;;;;;;12.90;50.23;99360.91;1749785;79;21580;-67
2021/03/04 07:44:31;;;;;;;18.62;14.65;;;;;;;12.92;50.19;99357.55;1751109;79;21771;-68
2021/03/04 07:47:03;;;;;;;17.77;13.60;;;;;;;12.96;50.15;99352.63;1741705;81;21405;-65
2021/03/04 07:49:45;;;;;;;18.52;14.70;;;;;;;12.98;50.15;99354.62;1755657;81;21203;-66
2021/03/04 07:52:23;;;;;;;21.82;14.58;;;;;;;13.01;50.09;99343.55;1742475;81;21474;-66
2021/03/04 07:54:53;;;;;;;20.32;15.90;;;;;;;13.05;50.05;99347.99;1695347;84;21184;-65
2021/03/04 07:57:27;;;;;;;19.62;15.75;;;;;;;13.07;50.03;99339.28;1750143;81;21223;-65
2021/03/04 08:00:04;;;;;;;17.67;15.20;;;;;;;13.10;50.00;99350.91;1739205;79;21377;-66
2021/03/04 08:02:42;;;;;;;19.55;14.95;;;;;;;13.13;49.95;99334.02;1729705;81;21155;-67
2021/03/04 08:05:12;;;;;;;19.20;15.43;;;;;;;13.17;49.92;99322.42;1742486;79;21179;-67
2021/03/04 08:07:45;;;;;;;16.87;14.07;;;;;;;13.19;49.92;99323.05;1769765;80;21116;-67
2021/03/04 08:10:17;;;;;;;18.60;16.37;;;;;;;13.24;49.88;99325.97;1751673;80;21171;-67
2021/03/04 08:12:50;;;;;;;20.05;15.75;;;;;;;13.27;49.84;99308.73;1747594;80;23434;-68
2021/03/04 08:15:24;;;;;;;17.90;14.87;;;;;;;13.30;49.83;99300.39;1754405;80;21162;-66
2021/03/04 08:17:51;;;;;;;;;;;;;;;13.31;49.80;99290.86;1762591;79;22156;-70
2021/03/04 08:20:19;;;;;;;18.65;14.80;;;;;;;13.34;49.76;99290.97;1754405;80;20283;-67
2021/03/04 08:22:49;;;;;;;16.75;13.85;;;;;;;13.30;49.86;99293.20;1745014;80;21159;-68
2021/03/04 08:25:31;;;;;;;21.48;15.00;;;;;;;13.34;49.88;99290.97;1757139;80;21435;-67
2021/03/04 08:27:59;;;;;;;19.48;14.85;;;;;;;13.39;49.83;99293.88;1770927;80;21158;-70
2021/03/04 08:30:32;;;;;;;15.98;13.25;;;;;;;13.44;49.81;99272.74;1762013;80;21210;-67
2021/03/04 08:33:06;;;;;;;20.57;15.45;;;;;;;13.49;49.79;99288.17;1747905;80;22117;-71
2021/03/04 08:35:45;;;;;;;17.85;14.07;;;;;;;13.53;49.74;99275.56;1759630;80;21179;-69
2021/03/04 08:38:20;;;;;;;18.42;13.78;;;;;;;13.58;49.72;99274.98;1754091;79;21264;-66
2021/03/04 08:40:51;;;;;;;19.40;14.63;;;;;;;13.64;49.69;99261.36;1751201;80;21190;-67
2021/03/04 08:43:26;;;;;;;17.73;14.90;;;;;;;13.68;49.65;99262.59;1757178;80;21168;-68
2021/03/04 08:46:02;;;;;;;18.25;14.38;;;;;;;13.72;49.63;99264.66;1747446;79;21179;-67
2021/03/04 08:48:30;;;;;;;18.85;14.58;;;;;;;13.78;49.61;99258.22;1748348;80;21175;-66
2021/03/04 08:51:03;;;;;;;17.80;14.83;;;;;;;13.82;49.59;99259.45;1760618;79;21362;-66
2021/03/04 08:53:34;;;;;;;18.45;14.63;;;;;;;13.88;49.59;99259.46;1747736;80;21686;-67
2021/03/04 08:56:04;;;;;;;19.27;15.43;;;;;;;13.92;49.56;99250.02;1757483;80;21163;-67
2021/03/04 08:58:33;;;;;;;19.62;14.60;;;;;;;14.00;49.57;99234.84;1756384;80;21616;-64
2021/03/04 09:01:03;;;;;;;16.90;14.58;;;;;;;14.07;49.78;99242.36;1756361;80;22155;-66
2021/03/04 09:03:36;;;;;;;15.40;13.15;;;;;;;14.15;50.00;99232.30;1750669;80;21379;-66
2021/03/04 09:06:07;;;;;;;15.05;12.80;;;;;;;14.25;50.52;99239.09;1745319;80;21172;-67
2021/03/04 09:08:48;;;;;;;17.32;12.88;;;;;;;14.32;50.84;99224.70;1740640;80;21163;-65
2021/03/04 09:11:33;;;;;;;16.45;12.88;;;;;;;14.39;50.98;99219.88;1743683;81;21155;-69
2021/03/04 09:14:03;;;;;;;17.32;13.08;;;;;;;14.45;51.10;99212.39;1752629;79;21191;-68
2021/03/04 09:16:43;;;;;;;15.48;12.53;;;;;;;14.52;51.13;99198.49;1744934;81;21253;-67
2021/03/04 09:19:12;;;;;;;14.95;11.97;;;;;;;14.59;51.08;99199.88;1739230;81;21186;-67
2021/03/04 09:21:40;;;;;;;16.15;12.85;;;;;;;14.65;51.05;99185.14;1744044;81;21192;-68
2021/03/04 09:24:09;;;;;;;16.55;13.13;;;;;;;14.70;50.99;99170.65;1745949;81;21150;-66
2021/03/04 09:26:37;;;;;;;17.32;13.90;;;;;;;14.78;50.96;99183.50;1751835;79;21611;-65
2021/03/04 09:29:05;;;;;;;15.05;12.10;;;;;;;14.86;50.88;99184.60;1749747;79;21377;-65
2021/03/04 09:31:33;;;;;;;17.77;13.65;;;;;;;14.93;50.79;99180.03;1753916;81;21207;-67
2021/03/04 09:34:03;;;;;;;17.87;12.55;;;;;;;15.02;50.72;99174.77;1748295;81;21148;-67
2021/03/04 09:36:30;;;;;;;15.50;12.15;;;;;;;15.10;50.54;99175.89;1751120;81;21588;-68
2021/03/04 09:38:58;;;;;;;14.35;12.15;;;;;;;15.20;50.33;99169.25;1744670;81;21083;-68
2021/03/04 09:41:25;;;;;;;14.60;12.00;;;;;;;15.29;50.17;99162.63;1744734;79;21201;-66
2021/03/04 09:44:02;;;;;;;15.35;12.53;;;;;;;15.39;50.00;99161.65;1746431;81;21583;-66
2021/03/04 09:46:38;;;;;;;16.95;12.68;;;;;;;15.50;49.95;99152.13;1755243;79;21183;-68
2021/03/04 09:49:12;;;;;;;15.75;12.58;;;;;;;15.62;49.72;99137.55;1741969;81;21171;-66
2021/03/04 09:51:41;;;;;;;17.17;12.80;;;;;;;15.71;49.54;99136.25;1742689;79;21156;-67
2021/03/04 09:54:09;;;;;;;16.67;12.73;;;;;;;15.84;49.69;99138.03;1753337;79;21405;-68
2021/03/04 09:56:38;;;;;;;14.40;12.10;;;;;;;15.92;49.71;99141.81;1737755;81;21183;-64
2021/03/04 09:59:06;;;;;;;17.07;12.85;;;;;;;16.03;49.50;99137.09;1743785;81;21156;-65
2021/03/04 10:01:36;;;;;;;15.68;12.58;;;;;;;16.11;49.72;99127.43;1758762;81;21139;-65
2021/03/04 10:04:06;;;;;;;15.05;11.88;;;;;;;16.23;49.67;99111.45;1744957;79;21195;-64
2021/03/04 10:06:37;;;;;;;15.10;12.15;;;;;;;16.34;49.58;99112.60;1758103;81;21548;-65
2021/03/04 10:09:06;;;;;;;16.95;12.40;;;;;;;16.45;49.54;99117.20;1754905;80;21182;-65
2021/03/04 10:11:38;;;;;;;13.68;11.35;;;;;;;16.56;49.39;99112.98;1750579;80;21611;-65
2021/03/04 10:14:07;;;;;;;14.77;12.40;;;;;;;16.68;49.21;99107.70;1762365;79;21496;-63
2021/03/04 10:16:35;;;;;;;12.43;10.95;;;;;;;16.79;49.15;99102.94;1754776;80;21150;-66
2021/03/04 10:19:03;;;;;;;14.50;12.30;;;;;;;16.92;49.01;99098.48;1765213;79;21231;-65
2021/03/04 10:21:30;;;;;;;14.47;12.28;;;;;;;17.02;48.85;99080.81;1766144;80;21812;-67
2021/03/04 10:23:58;;;;;;;16.17;11.73;;;;;;;17.15;48.77;99084.36;1754420;80;21647;-65
2021/03/04 10:26:25;;;;;;;13.68;11.35;;;;;;;17.27;48.61;99070.48;1755753;80;21604;-65
2021/03/04 10:28:53;;;;;;;13.40;11.45;;;;;;;17.38;48.41;99064.30;1750624;80;21143;-67
2021/03/04 10:31:21;;;;;;;13.88;11.60;;;;;;;17.51;48.27;99063.30;1773246;80;21195;-66
2021/03/04 10:33:49;;;;;;;12.28;10.38;;;;;;;17.64;48.20;99059.59;1757548;79;21167;-64
2021/03/04 10:36:17;;;;;;;12.60;10.48;;;;;;;17.76;48.07;99066.33;1745979;80;21182;-67
2021/03/04 10:38:45;;;;;;;14.10;11.20;;;;;;;17.90;47.94;99069.64;1761450;80;21119;-66
2021/03/04 10:41:12;;;;;;;12.53;10.95;;;;;;;18.01;47.69;99052.18;1761298;79;21192;-65
2021/03/04 10:43:40;;;;;;;12.28;10.98;;;;;;;18.14;47.57;99055.67;1750846;80;21363;-71
2021/03/04 10:46:07;;;;;;;13.10;11.18;;;;;;;18.25;47.36;99039.56;1759089;80;21595;-68
2021/03/04 10:48:35;;;;;;;12.80;10.53;;;;;;;18.38;47.10;99046.55;1750383;80;21595;-70
2021/03/04 10:51:03;;;;;;;12.18;10.82;;;;;;;18.49;46.73;99038.18;1763416;80;21395;-71
2021/03/04 10:53:32;;;;;;;11.73;10.20;;;;;;;18.58;46.64;99034.08;1760994;80;21563;-74
2021/03/04 10:55:59;;;;;;;14.20;11.20;;;;;;;18.66;46.31;99016.21;1754573;79;22861;-70
2021/03/04 10:58:26;;;;;;;11.88;10.23;;;;;;;18.74;46.07;99015.55;1746517;80;21553;-71
2021/03/04 11:00:54;;;;;;;12.78;11.08;;;;;;;18.80;45.74;99015.97;1752285;80;21124;-74
2021/03/04 11:03:22;;;;;;;11.93;10.65;;;;;;;18.85;46.58;99006.62;1754590;79;21194;-74
2021/03/04 11:05:50;;;;;;;13.35;10.68;;;;;;;18.94;46.02;99000.34;1752739;80;21126;-77
2021/03/04 11:08:19;;;;;;;12.15;10.80;;;;;;;19.01;46.04;98995.64;1764653;80;21560;-71
2021/03/04 11:10:47;;;;;;;10.35;9.28;;;;;;;19.09;46.02;99001.16;1747472;80;21195;-69
2021/03/04 11:13:16;;;;;;;10.80;9.15;;;;;;;19.17;46.18;99011.53;1746158;80;21632;-70
2021/03/04 11:15:43;;;;;;;11.78;9.58;;;;;;;19.23;46.05;99014.59;1748020;80;21146;-70
2021/03/04 11:18:12;;;;;;;12.13;10.40;;;;;;;19.30;45.91;99008.53;1756821;79;21140;-73
2021/03/04 11:20:41;;;;;;;11.40;9.90;;;;;;;19.40;45.79;99010.05;1759758;80;21777;-75
2021/03/04 11:23:09;;;;;;;13.70;10.05;;;;;;;19.47;45.75;98987.02;1751822;80;21572;-71
2021/03/04 11:25:38;;;;;;;11.00;9.83;;;;;;;19.60;45.49;98994.73;1715682;82;21457;-73
2021/03/04 11:28:08;;;;;;;12.18;10.28;;;;;;;19.75;45.27;98983.95;1700695;83;21755;-73
2021/03/04 11:30:36;;;;;;;11.43;10.08;;;;;;;19.89;45.13;98992.52;1693517;82;21139;-70
2021/03/04 11:33:09;;;;;;;11.43;9.95;;;;;;;19.95;44.81;98989.66;1697065;83;21429;-72
2021/03/04 11:35:37;;;;;;;11.65;9.73;;;;;;;19.96;44.38;98976.98;1700696;83;21163;-73
2021/03/04 11:38:04;;;;;;;12.58;10.48;;;;;;;19.93;44.36;98978.82;1690972;83;21194;-72